createdAt,value
2022-09-20T00:01:15.995Z,11.34
2022-09-20T00:03:15.857Z,11.25
2022-09-20T00:05:15.882Z,11.22
2022-09-20T00:07:15.890Z,11.03
2022-09-20T00:09:46.628Z,11.12
2022-09-20T00:11:46.591Z,11.13
2022-09-20T00:13:46.587Z,11.15
2022-09-20T00:15:46.656Z,11.13
2022-09-20T00:17:46.586Z,11.1
2022-09-20T00:19:46.595Z,10.96
2022-09-20T00:21:46.621Z,11
2022-09-20T00:23:46.588Z,11.06
2022-09-20T00:25:06.910Z,11.05
2022-09-20T00:27:06.955Z,11.02
2022-09-20T00:29:06.893Z,10.99
2022-09-20T00:31:06.909Z,10.89
2022-09-20T00:33:06.934Z,10.75
2022-09-20T00:35:06.885Z,10.73
2022-09-20T00:37:06.886Z,10.75
2022-09-20T00:40:37.783Z,10.67
2022-09-20T00:42:37.684Z,10.68
2022-09-20T00:44:37.738Z,10.69
2022-09-20T00:46:37.765Z,10.67
2022-09-20T00:48:37.692Z,10.64
2022-09-20T00:50:37.704Z,10.61
2022-09-20T00:52:37.899Z,10.62
2022-09-20T00:55:31.318Z,10.64
2022-09-20T00:57:31.268Z,10.55
2022-09-20T00:59:31.256Z,10.42
2022-09-20T01:01:31.349Z,10.42
2022-09-20T01:03:31.288Z,10.39
2022-09-20T01:05:31.296Z,10.41
2022-09-20T01:07:31.248Z,10.34
2022-09-20T01:10:34.072Z,10.21
2022-09-20T01:12:34.081Z,10.22
2022-09-20T01:14:34.061Z,10.13
2022-09-20T01:16:34.150Z,10.02
2022-09-20T01:18:34.079Z,9.76
2022-09-20T01:20:34.078Z,9.79
2022-09-20T01:22:34.099Z,9.88
2022-09-20T01:25:57.649Z,9.88
2022-09-20T01:27:57.680Z,9.91
2022-09-20T01:29:57.635Z,9.95
2022-09-20T01:31:57.708Z,9.96
2022-09-20T01:33:57.660Z,9.97
2022-09-20T01:35:57.645Z,9.97
2022-09-20T01:37:57.651Z,9.92
2022-09-20T01:41:24.948Z,10.01
2022-09-20T01:43:24.939Z,9.91
2022-09-20T01:45:24.936Z,9.9
2022-09-20T01:47:24.977Z,9.84
2022-09-20T01:49:24.958Z,9.83
2022-09-20T01:51:24.928Z,9.79
2022-09-20T01:53:24.972Z,9.64
2022-09-20T01:56:32.869Z,9.62
2022-09-20T01:58:32.869Z,9.61
2022-09-20T02:00:32.929Z,9.68
2022-09-20T02:02:32.927Z,9.58
2022-09-20T02:04:32.886Z,9.59
2022-09-20T02:06:32.925Z,9.55
2022-09-20T02:08:32.861Z,9.52
2022-09-20T02:11:56.376Z,9.41
2022-09-20T02:13:56.380Z,9.43
2022-09-20T02:15:56.355Z,9.44
2022-09-20T02:17:56.405Z,9.39
2022-09-20T02:19:56.374Z,9.31
2022-09-20T02:21:56.388Z,9.23
2022-09-20T02:23:56.342Z,9.29
2022-09-20T02:27:04.350Z,9.19
2022-09-20T02:29:04.354Z,9.19
2022-09-20T02:31:04.329Z,9.22
2022-09-20T02:33:04.331Z,9.2
2022-09-20T02:35:04.350Z,9.14
2022-09-20T02:37:04.321Z,9.13
2022-09-20T02:39:04.340Z,9.08
2022-09-20T02:41:51.830Z,8.99
2022-09-20T02:43:51.824Z,8.89
2022-09-20T02:45:51.907Z,8.9
2022-09-20T02:47:51.818Z,8.84
2022-09-20T02:49:51.816Z,8.78
2022-09-20T02:51:51.891Z,8.77
2022-09-20T02:53:51.931Z,8.76
2022-09-20T02:57:05.213Z,8.74
2022-09-20T02:59:05.327Z,8.63
2022-09-20T03:01:05.305Z,8.6
2022-09-20T03:03:05.166Z,8.57
2022-09-20T03:05:05.210Z,8.45
2022-09-20T03:07:05.189Z,8.38
2022-09-20T03:09:05.214Z,8.28
2022-09-20T03:11:58.180Z,8.26
2022-09-20T03:13:58.207Z,8.26
2022-09-20T03:15:58.161Z,8.2
2022-09-20T03:17:58.172Z,8.18
2022-09-20T03:19:58.215Z,8.17
2022-09-20T03:21:58.155Z,8.1
2022-09-20T03:23:58.178Z,8.01
2022-09-20T03:27:39.964Z,7.9
2022-09-20T03:29:39.916Z,7.85
2022-09-20T03:31:40.007Z,7.85
2022-09-20T03:33:39.916Z,7.79
2022-09-20T03:35:39.900Z,7.8
2022-09-20T03:37:39.901Z,7.77
2022-09-20T03:39:39.975Z,7.79
2022-09-20T03:42:39.623Z,7.75
2022-09-20T03:44:39.677Z,7.7
2022-09-20T03:46:39.677Z,7.68
2022-09-20T03:48:39.672Z,7.6
2022-09-20T03:50:39.667Z,7.59
2022-09-20T03:52:39.629Z,7.62
2022-09-20T03:54:39.618Z,7.69
2022-09-20T03:57:52.830Z,7.71
2022-09-20T03:59:52.802Z,7.69
2022-09-20T04:01:52.879Z,7.7
2022-09-20T04:03:52.821Z,7.72
2022-09-20T04:05:52.809Z,7.74
2022-09-20T04:07:52.836Z,7.79
2022-09-20T04:09:52.838Z,7.73
2022-09-20T04:13:11.774Z,7.67
2022-09-20T04:15:11.813Z,7.67
2022-09-20T04:17:11.748Z,7.71
2022-09-20T04:19:11.743Z,7.79
2022-09-20T04:21:11.768Z,7.8
2022-09-20T04:23:11.753Z,7.84
2022-09-20T04:25:11.731Z,7.85
2022-09-20T04:27:55.322Z,7.91
2022-09-20T04:29:55.354Z,7.93
2022-09-20T04:31:55.391Z,7.99
2022-09-20T04:33:55.353Z,8.01
2022-09-20T04:35:55.301Z,7.97
2022-09-20T04:37:55.343Z,8
2022-09-20T04:39:55.312Z,7.98
2022-09-20T04:43:41.246Z,8.14
2022-09-20T04:45:41.297Z,8.22
2022-09-20T04:47:41.196Z,8.31
2022-09-20T04:49:41.230Z,8.32
2022-09-20T04:51:41.242Z,8.37
2022-09-20T04:53:41.233Z,8.6
2022-09-20T04:55:41.206Z,8.82
2022-09-20T04:58:04.330Z,8.9
2022-09-20T05:00:04.343Z,9
2022-09-20T05:02:04.410Z,9.48
2022-09-20T05:04:04.338Z,10.25
2022-09-20T05:06:04.376Z,11.48
2022-09-20T05:08:04.329Z,14.18
2022-09-20T05:10:04.328Z,13.13
2022-09-20T05:12:04.317Z,12.84
2022-09-20T05:14:02.903Z,12.01
2022-09-20T05:16:02.816Z,11.19
2022-09-20T05:18:02.835Z,10.9
2022-09-20T05:20:02.828Z,11.01
2022-09-20T05:22:02.784Z,11.61
2022-09-20T05:24:02.787Z,13.35
2022-09-20T05:26:02.792Z,15.17
2022-09-20T05:28:56.566Z,14.39
2022-09-20T05:30:56.598Z,13.95
2022-09-20T05:32:56.568Z,13.73
2022-09-20T05:34:56.597Z,13.39
2022-09-20T05:36:56.550Z,13.02
2022-09-20T05:38:57.229Z,12.64
2022-09-20T05:40:56.550Z,12.21
2022-09-20T05:44:03.167Z,11.61
2022-09-20T05:46:03.196Z,11.72
2022-09-20T05:48:03.215Z,11.9
2022-09-20T05:50:03.193Z,11.95
2022-09-20T05:52:03.123Z,11.78
2022-09-20T05:54:03.117Z,11.63
2022-09-20T05:56:03.128Z,11.7
2022-09-20T05:59:12.061Z,11.62
2022-09-20T06:01:11.768Z,11.83
2022-09-20T06:03:11.746Z,12.14
2022-09-20T06:05:11.830Z,11.49
2022-09-20T06:07:11.744Z,11.7
2022-09-20T06:09:11.738Z,12.26
2022-09-20T06:11:11.755Z,12.37
2022-09-20T06:13:52.120Z,12.39
2022-09-20T06:15:52.126Z,12.95
2022-09-20T06:17:52.127Z,13.2
2022-09-20T06:19:52.136Z,12.75
2022-09-20T06:21:52.142Z,12.07
2022-09-20T06:23:52.193Z,12.23
2022-09-20T06:25:52.147Z,12.84
2022-09-20T06:27:52.127Z,11.79
2022-09-20T06:29:44.995Z,11.95
2022-09-20T06:31:45.033Z,12.47
2022-09-20T06:33:44.989Z,12.24
2022-09-20T06:35:44.962Z,12.27
2022-09-20T06:37:45.024Z,12.63
2022-09-20T06:39:44.966Z,13.24
2022-09-20T06:41:45.013Z,13.22
2022-09-20T06:44:22.137Z,12.88
2022-09-20T06:46:22.149Z,12.82
2022-09-20T06:48:22.180Z,13.07
2022-09-20T06:50:22.136Z,12.94
2022-09-20T06:52:22.172Z,13.31
2022-09-20T06:54:22.153Z,13.06
2022-09-20T06:56:22.117Z,13.5
2022-09-20T06:58:22.131Z,13.6
2022-09-20T06:59:56.856Z,13.35
2022-09-20T07:01:56.880Z,13.56
2022-09-20T07:03:56.853Z,13.23
2022-09-20T07:05:56.845Z,13.45
2022-09-20T07:07:56.854Z,13.71
2022-09-20T07:09:56.899Z,13.23
2022-09-20T07:11:56.849Z,13.02
2022-09-20T07:15:24.810Z,13.17
2022-09-20T07:17:24.760Z,13.97
2022-09-20T07:19:24.752Z,13.49
2022-09-20T07:21:24.808Z,13.05
2022-09-20T07:23:24.888Z,12.76
2022-09-20T07:25:24.779Z,13.39
2022-09-20T07:27:28.679Z,13.63
2022-09-20T07:30:41.197Z,13.96
2022-09-20T07:32:41.220Z,13.35
2022-09-20T07:34:41.179Z,13.95
2022-09-20T07:36:41.176Z,14.21
2022-09-20T07:38:41.219Z,14.82
2022-09-20T07:40:41.184Z,14.58
2022-09-20T07:42:41.178Z,14.67
2022-09-20T07:45:34.703Z,14.07
2022-09-20T07:47:34.732Z,13.84
2022-09-20T07:49:34.727Z,14.45
2022-09-20T07:51:34.663Z,14.64
2022-09-20T07:53:34.680Z,15.03
2022-09-20T07:55:34.710Z,15.4
2022-09-20T07:57:34.688Z,15.22
2022-09-20T08:00:38.338Z,15.22
2022-09-20T08:02:38.321Z,14.63
2022-09-20T08:04:38.334Z,14.6
2022-09-20T08:06:38.279Z,14.65
2022-09-20T08:08:38.276Z,14.59
2022-09-20T08:10:38.320Z,15.04
2022-09-20T08:15:31.278Z,14.87
2022-09-20T08:17:31.267Z,14.98
2022-09-20T08:19:31.264Z,15.66
2022-09-20T08:21:31.277Z,15.2
2022-09-20T08:23:31.298Z,15.42
2022-09-20T08:25:31.254Z,15.74
2022-09-20T08:27:31.256Z,15.52
2022-09-20T08:31:17.961Z,15.26
2022-09-20T08:33:17.888Z,15.54
2022-09-20T08:35:17.926Z,15.49
2022-09-20T08:37:17.885Z,15.53
2022-09-20T08:41:17.875Z,15.66
2022-09-20T08:43:22.209Z,15.42
2022-09-20T08:45:45.742Z,16.38
2022-09-20T08:47:45.647Z,15.7
2022-09-20T08:49:46.733Z,14.99
2022-09-20T08:51:48.546Z,14.96
2022-09-20T08:53:49.054Z,15.08
2022-09-20T08:55:45.613Z,14.23
2022-09-20T08:57:45.619Z,13.75
2022-09-20T09:01:35.179Z,14.22
2022-09-20T09:03:35.212Z,14.25
2022-09-20T09:05:35.219Z,14.59
2022-09-20T09:07:35.166Z,15.07
2022-09-20T09:09:37.535Z,15.83
2022-09-20T09:11:35.170Z,15.94
2022-09-20T09:13:35.214Z,15.95
2022-09-20T09:16:11.000Z,15.95
2022-09-20T09:18:10.920Z,15.71
2022-09-20T09:20:10.946Z,16.31
2022-09-20T09:22:10.953Z,16.61
2022-09-20T09:24:10.917Z,17.11
2022-09-20T09:26:10.982Z,16.28
2022-09-20T09:28:10.912Z,15.81
2022-09-20T09:31:12.230Z,15.59
2022-09-20T09:33:12.202Z,16.01
2022-09-20T09:35:12.222Z,15.39
2022-09-20T09:37:12.185Z,15.27
2022-09-20T09:39:12.259Z,15.71
2022-09-20T09:41:12.195Z,16
2022-09-20T09:43:12.188Z,15.37
2022-09-20T09:46:39.062Z,16.44
2022-09-20T09:48:40.155Z,17.15
2022-09-20T09:50:39.084Z,17.29
2022-09-20T09:52:39.063Z,17.21
2022-09-20T09:54:39.098Z,16.54
2022-09-20T09:56:39.077Z,16.43
2022-09-20T09:58:39.096Z,16.11
2022-09-20T10:01:33.607Z,16.65
2022-09-20T10:03:32.785Z,16.77
2022-09-20T10:05:32.737Z,17.31
2022-09-20T10:07:32.766Z,17.87
2022-09-20T10:09:32.787Z,18.33
2022-09-20T10:11:32.739Z,17.81
2022-09-20T10:13:35.055Z,17.49
2022-09-20T10:17:09.620Z,17.79
2022-09-20T10:19:09.596Z,17.87
2022-09-20T10:21:09.605Z,17.63
2022-09-20T10:25:09.617Z,16.87
2022-09-20T10:27:09.598Z,17.06
2022-09-20T10:29:09.644Z,16.78
2022-09-20T10:32:22.474Z,17.19
2022-09-20T10:34:22.509Z,17.21
2022-09-20T10:36:22.460Z,17.49
2022-09-20T10:38:22.498Z,17.41
2022-09-20T10:40:22.513Z,17.44
2022-09-20T10:42:22.462Z,17.59
2022-09-20T10:44:22.502Z,18.08
2022-09-20T10:47:13.231Z,17.19
2022-09-20T10:49:13.140Z,17.88
2022-09-20T10:51:13.154Z,17.71
2022-09-20T10:53:13.177Z,17.44
2022-09-20T10:55:13.184Z,17.5
2022-09-20T10:57:13.142Z,17.04
2022-09-20T10:59:13.154Z,17.06
2022-09-20T11:02:20.566Z,17.4
2022-09-20T11:04:20.519Z,16.94
2022-09-20T11:06:20.469Z,17.24
2022-09-20T11:08:20.473Z,17.21
2022-09-20T11:10:20.498Z,17.75
2022-09-20T11:12:20.471Z,18.07
2022-09-20T11:14:20.460Z,18.02
2022-09-20T11:17:15.810Z,18.26
2022-09-20T11:19:15.768Z,18.3
2022-09-20T11:21:15.802Z,18.34
2022-09-20T11:23:15.802Z,17.53
2022-09-20T11:25:20.147Z,17.26
2022-09-20T11:27:15.812Z,16.68
2022-09-20T11:29:15.822Z,16.81
2022-09-20T11:31:15.821Z,16.81
2022-09-20T11:32:29.609Z,17.55
2022-09-20T11:34:29.643Z,17.5
2022-09-20T11:36:29.597Z,16.94
2022-09-20T11:38:29.610Z,17.13
2022-09-20T11:40:29.690Z,16.8
2022-09-20T11:42:29.638Z,16.47
2022-09-20T11:44:29.633Z,16.28
2022-09-20T11:48:12.704Z,17.23
2022-09-20T11:50:12.633Z,17.83
2022-09-20T11:52:12.629Z,18.2
2022-09-20T11:54:12.647Z,18.38
2022-09-20T11:56:12.627Z,17.91
2022-09-20T11:58:12.654Z,17.8
2022-09-20T12:00:12.619Z,17.02
2022-09-20T12:03:12.217Z,16.85
2022-09-20T12:05:12.108Z,17.15
2022-09-20T12:07:15.673Z,17.47
2022-09-20T12:09:12.138Z,17.59
2022-09-20T12:11:12.093Z,17.82
2022-09-20T12:13:12.089Z,17.03
2022-09-20T12:15:12.125Z,17.15
2022-09-20T12:18:39.545Z,16.96
2022-09-20T12:20:39.575Z,17.38
2022-09-20T12:22:39.544Z,16.93
2022-09-20T12:24:43.251Z,16.13
2022-09-20T12:26:39.548Z,16.89
2022-09-20T12:28:39.538Z,17.06
2022-09-20T12:30:39.551Z,17.19
2022-09-20T12:33:36.035Z,16.99
2022-09-20T12:35:35.993Z,16.84
2022-09-20T12:37:36.009Z,16.87
2022-09-20T12:39:35.994Z,17.04
2022-09-20T12:41:35.996Z,17.01
2022-09-20T12:43:36.024Z,17.45
2022-09-20T12:45:36.010Z,17.75
2022-09-20T12:48:48.753Z,17.43
2022-09-20T12:50:48.673Z,17.11
2022-09-20T12:52:48.737Z,17.04
2022-09-20T12:54:48.672Z,17.1
2022-09-20T12:56:48.721Z,17.18
2022-09-20T12:58:48.671Z,17.15
2022-09-20T13:00:48.801Z,16.99
2022-09-20T13:03:51.231Z,17.11
2022-09-20T13:05:51.322Z,17
2022-09-20T13:07:51.217Z,16.69
2022-09-20T13:09:51.225Z,16.92
2022-09-20T13:11:51.948Z,16.35
2022-09-20T13:13:51.237Z,16.44
2022-09-20T13:15:51.267Z,16.52
2022-09-20T13:19:18.901Z,16.48
2022-09-20T13:21:18.983Z,16.26
2022-09-20T13:23:18.900Z,16.33
2022-09-20T13:25:18.947Z,16.37
2022-09-20T13:27:19.969Z,16.51
2022-09-20T13:29:18.905Z,16.37
2022-09-20T13:31:18.961Z,16.78
2022-09-20T13:34:35.666Z,16.71
2022-09-20T13:36:35.692Z,16.88
2022-09-20T13:38:35.697Z,16.86
2022-09-20T13:40:35.711Z,16.85
2022-09-20T13:42:35.689Z,17.13
2022-09-20T13:44:35.668Z,17.01
2022-09-20T13:46:35.704Z,17.04
2022-09-20T13:49:15.864Z,16.6
2022-09-20T13:51:15.859Z,16.89
2022-09-20T13:53:28.065Z,17.13
2022-09-20T13:55:15.843Z,16.99
2022-09-20T13:57:15.853Z,16.67
2022-09-20T13:59:19.008Z,16.73
2022-09-20T14:01:16.000Z,16.77
2022-09-20T14:04:04.044Z,16.28
2022-09-20T14:06:03.843Z,16.36
2022-09-20T14:08:03.869Z,16.37
2022-09-20T14:10:03.848Z,16.28
2022-09-20T14:12:03.825Z,16.25
2022-09-20T14:14:03.825Z,16.09
2022-09-20T14:16:03.847Z,16.32
2022-09-20T14:18:03.848Z,16.4
2022-09-20T14:20:04.846Z,16.42
2022-09-20T14:22:04.825Z,16.34
2022-09-20T14:24:04.849Z,16.44
2022-09-20T14:26:04.840Z,16.18
2022-09-20T14:28:04.857Z,16.21
2022-09-20T14:30:04.823Z,16.12
2022-09-20T14:32:04.816Z,15.98
2022-09-20T14:34:59.725Z,16.18
2022-09-20T14:36:59.724Z,16.31
2022-09-20T14:38:59.759Z,16.16
2022-09-20T14:40:59.714Z,16.04
2022-09-20T14:42:59.740Z,15.68
2022-09-20T14:44:59.762Z,15.86
2022-09-20T14:46:59.718Z,15.87
2022-09-20T14:50:01.137Z,15.61
2022-09-20T14:52:01.024Z,15.79
2022-09-20T14:54:00.972Z,15.61
2022-09-20T14:56:00.974Z,15.42
2022-09-20T14:58:00.983Z,15.63
2022-09-20T15:00:00.987Z,15.49
2022-09-20T15:02:01.011Z,15.38
2022-09-20T15:04:56.590Z,15.49
2022-09-20T15:06:56.549Z,15.48
2022-09-20T15:08:56.547Z,15.47
2022-09-20T15:10:56.591Z,15.49
2022-09-20T15:12:56.569Z,15.3
2022-09-20T15:14:56.559Z,15.27
2022-09-20T15:16:56.564Z,15.25
2022-09-20T15:20:20.671Z,15.16
2022-09-20T15:22:17.562Z,14.98
2022-09-20T15:24:17.573Z,14.78
2022-09-20T15:26:17.560Z,14.97
2022-09-20T15:28:17.590Z,14.92
2022-09-20T15:30:17.567Z,14.86
2022-09-20T15:32:17.640Z,14.94
2022-09-20T15:35:42.993Z,14.7
2022-09-20T15:37:43.041Z,14.78
2022-09-20T15:39:42.999Z,14.75
2022-09-20T15:41:43.002Z,14.7
2022-09-20T15:43:43.001Z,14.63
2022-09-20T15:45:43.065Z,14.48
2022-09-20T15:47:43.020Z,14.5
2022-09-20T15:50:52.896Z,14.38
2022-09-20T15:52:54.873Z,14.23
2022-09-20T15:54:52.919Z,14.24
2022-09-20T15:56:52.872Z,14.22
2022-09-20T15:58:52.874Z,13.97
2022-09-20T16:00:52.923Z,13.97
2022-09-20T16:02:52.982Z,13.88
2022-09-20T16:05:59.767Z,13.77
2022-09-20T16:07:54.614Z,13.82
2022-09-20T16:09:54.460Z,13.77
2022-09-20T16:11:54.458Z,13.66
2022-09-20T16:13:54.470Z,13.65
2022-09-20T16:15:54.539Z,13.66
2022-09-20T16:17:54.446Z,13.72
2022-09-20T16:21:20.822Z,13.6
2022-09-20T16:23:24.077Z,13.61
2022-09-20T16:25:20.706Z,13.52
2022-09-20T16:27:20.730Z,13.52
2022-09-20T16:29:20.772Z,13.43
2022-09-20T16:31:20.718Z,13.25
2022-09-20T16:33:20.717Z,13.11
2022-09-20T16:36:10.383Z,13.04
2022-09-20T16:38:10.357Z,12.87
2022-09-20T16:40:10.366Z,12.65
2022-09-20T16:42:10.337Z,12.47
2022-09-20T16:44:10.345Z,12.5
2022-09-20T16:46:10.329Z,12.45
2022-09-20T16:48:10.300Z,12.35
2022-09-20T16:51:17.902Z,12.25
2022-09-20T16:53:18.003Z,12.19
2022-09-20T16:55:17.887Z,12.18
2022-09-20T16:57:17.887Z,12.13
2022-09-20T16:59:17.951Z,12.08
2022-09-20T17:01:17.896Z,12.04
2022-09-20T17:03:17.865Z,12
2022-09-20T17:06:10.267Z,11.84
2022-09-20T17:08:10.210Z,11.78
2022-09-20T17:10:10.249Z,11.61
2022-09-20T17:12:10.199Z,11.55
2022-09-20T17:14:10.209Z,11.57
2022-09-20T17:16:10.283Z,11.52
2022-09-20T17:18:13.568Z,11.49
2022-09-20T17:20:10.243Z,11.51
2022-09-20T17:21:44.122Z,11.45
2022-09-20T17:23:47.545Z,11.44
2022-09-20T17:25:44.220Z,11.42
2022-09-20T17:27:44.106Z,11.29
2022-09-20T17:29:44.148Z,11.26
2022-09-20T17:31:44.162Z,11.19
2022-09-20T17:33:44.097Z,11.08
2022-09-20T17:37:20.377Z,10.88
2022-09-20T17:39:20.356Z,10.98
2022-09-20T17:41:20.552Z,10.97
2022-09-20T17:43:20.462Z,10.96
2022-09-20T17:45:20.372Z,10.92
2022-09-20T17:47:20.421Z,10.89
2022-09-20T17:49:20.395Z,10.85
2022-09-20T17:51:30.603Z,10.79
2022-09-20T17:53:30.612Z,10.77
2022-09-20T17:55:30.725Z,10.75
2022-09-20T17:57:30.624Z,10.74
2022-09-20T17:59:30.638Z,10.68
2022-09-20T18:01:30.593Z,10.63
2022-09-20T18:03:30.601Z,10.7
2022-09-20T18:05:30.595Z,10.67
2022-09-20T18:07:08.617Z,10.58
2022-09-20T18:09:08.606Z,10.52
2022-09-20T18:11:08.559Z,10.43
2022-09-20T18:13:08.591Z,10.37
2022-09-20T18:15:08.594Z,10.36
2022-09-20T18:17:08.584Z,10.37
2022-09-20T18:19:08.585Z,10.26
2022-09-20T18:22:45.027Z,10.22
2022-09-20T18:24:45.011Z,10.17
2022-09-20T18:26:45.070Z,10.15
2022-09-20T18:28:48.733Z,10.06
2022-09-20T18:30:45.037Z,10.05
2022-09-20T18:32:45.006Z,10.03
2022-09-20T18:34:45.054Z,10.07
2022-09-20T18:37:35.769Z,10.03
2022-09-20T18:39:35.806Z,9.97
2022-09-20T18:41:35.764Z,9.94
2022-09-20T18:43:35.746Z,9.97
2022-09-20T18:45:35.818Z,9.93
2022-09-20T18:47:35.739Z,9.79
2022-09-20T18:49:35.801Z,9.87
2022-09-20T18:52:42.666Z,9.82
2022-09-20T18:54:42.681Z,9.72
2022-09-20T18:56:42.651Z,9.71
2022-09-20T18:58:42.629Z,9.69
2022-09-20T19:00:42.731Z,9.62
2022-09-20T19:02:42.628Z,9.59
2022-09-20T19:04:42.621Z,9.54
2022-09-20T19:08:10.523Z,9.57
2022-09-20T19:10:10.524Z,9.5
2022-09-20T19:12:10.518Z,9.51
2022-09-20T19:14:10.505Z,9.46
2022-09-20T19:16:10.558Z,9.45
2022-09-20T19:18:10.548Z,9.43
2022-09-20T19:20:10.545Z,9.37
2022-09-20T19:23:27.849Z,9.32
2022-09-20T19:25:27.889Z,9.3
2022-09-20T19:27:27.901Z,9.25
2022-09-20T19:29:27.857Z,9.15
2022-09-20T19:31:28.001Z,9.14
2022-09-20T19:33:27.832Z,9.16
2022-09-20T19:35:27.842Z,9.15
2022-09-20T19:37:54.260Z,9.15
2022-09-20T19:39:54.266Z,9.14
2022-09-20T19:41:54.326Z,9.1
2022-09-20T19:43:54.254Z,8.94
2022-09-20T19:45:54.295Z,9.02
2022-09-20T19:47:54.270Z,9.03
2022-09-20T19:49:54.260Z,9.02
2022-09-20T19:53:17.228Z,8.98
2022-09-20T19:55:17.303Z,8.98
2022-09-20T19:57:17.245Z,8.93
2022-09-20T19:59:17.231Z,8.83
2022-09-20T20:01:17.321Z,8.91
2022-09-20T20:03:17.264Z,8.87
2022-09-20T20:05:17.207Z,8.84
2022-09-20T20:08:11.224Z,8.72
2022-09-20T20:10:11.197Z,8.69
2022-09-20T20:12:11.261Z,8.7
2022-09-20T20:14:11.211Z,8.68
2022-09-20T20:16:11.244Z,8.66
2022-09-20T20:18:14.565Z,8.51
2022-09-20T20:20:11.280Z,8.59
2022-09-20T20:22:11.288Z,8.61
2022-09-20T20:23:47.318Z,8.62
2022-09-20T20:25:47.361Z,8.63
2022-09-20T20:27:47.296Z,8.65
2022-09-20T20:29:47.339Z,8.63
2022-09-20T20:31:47.339Z,8.64
2022-09-20T20:33:47.297Z,8.57
2022-09-20T20:35:47.369Z,8.36
2022-09-20T20:39:19.292Z,8.48
2022-09-20T20:41:19.290Z,8.46
2022-09-20T20:43:19.297Z,8.47
2022-09-20T20:45:19.313Z,8.47
2022-09-20T20:47:19.289Z,8.49
2022-09-20T20:49:19.287Z,8.36
2022-09-20T20:51:19.768Z,8.4
2022-09-20T20:54:17.097Z,8.47
2022-09-20T20:56:17.099Z,8.53
2022-09-20T20:58:17.087Z,8.44
2022-09-20T21:00:17.103Z,8.38
2022-09-20T21:02:17.144Z,8.44
2022-09-20T21:04:17.154Z,8.42
2022-09-20T21:06:17.080Z,8.38
2022-09-20T21:09:36.642Z,8.4
2022-09-20T21:11:36.686Z,8.41
2022-09-20T21:13:36.655Z,8.41
2022-09-20T21:15:36.647Z,8.28
2022-09-20T21:17:36.646Z,8.21
2022-09-20T21:19:36.667Z,8.24
2022-09-20T21:21:36.599Z,8.27
2022-09-20T21:24:26.160Z,8.33
2022-09-20T21:26:26.178Z,8.23
2022-09-20T21:28:26.207Z,8.23
2022-09-20T21:30:26.151Z,8.09
2022-09-20T21:32:26.140Z,8.13
2022-09-20T21:34:26.131Z,8.04
2022-09-20T21:36:26.135Z,8.07
2022-09-20T21:39:02.358Z,8.18
2022-09-20T21:41:02.352Z,8.19
2022-09-20T21:43:02.368Z,8.19
2022-09-20T21:45:02.378Z,8.22
2022-09-20T21:47:02.352Z,8.2
2022-09-20T21:49:02.400Z,8.24
2022-09-20T21:51:02.356Z,8.28
2022-09-20T21:53:02.343Z,8.3
2022-09-20T21:54:39.411Z,8.36
2022-09-20T21:56:39.449Z,8.38
2022-09-20T21:58:39.410Z,8.53
2022-09-20T22:00:39.389Z,8.52
2022-09-20T22:02:39.454Z,8.62
2022-09-20T22:04:39.384Z,8.67
2022-09-20T22:06:39.435Z,8.5
2022-09-20T22:10:00.896Z,8.41
2022-09-20T22:12:00.962Z,8.5
2022-09-20T22:14:00.906Z,8.51
2022-09-20T22:16:00.906Z,8.51
2022-09-20T22:18:00.967Z,8.5
2022-09-20T22:20:00.887Z,8.48
2022-09-20T22:22:00.890Z,8.4
2022-09-20T22:25:15.708Z,8.38
2022-09-20T22:27:15.673Z,8.34
2022-09-20T22:29:15.672Z,8.35
2022-09-20T22:31:15.710Z,8.3
2022-09-20T22:33:15.656Z,8.35
2022-09-20T22:35:15.670Z,8.35
2022-09-20T22:37:15.707Z,8.28
2022-09-20T22:40:12.814Z,8.28
2022-09-20T22:42:12.795Z,8.35
2022-09-20T22:44:12.772Z,8.43
2022-09-20T22:46:12.881Z,8.37
2022-09-20T22:48:12.836Z,8.29
2022-09-20T22:50:12.768Z,8.3
2022-09-20T22:52:12.853Z,8.37
2022-09-20T22:55:35.818Z,8.38
2022-09-20T22:57:35.813Z,8.26
2022-09-20T22:59:35.863Z,8.39
2022-09-20T23:01:35.889Z,8.44
2022-09-20T23:03:35.917Z,8.47
2022-09-20T23:05:35.789Z,8.5
2022-09-20T23:07:35.800Z,8.46
2022-09-20T23:10:45.168Z,8.41
2022-09-20T23:12:45.165Z,8.53
2022-09-20T23:14:45.214Z,8.57
2022-09-20T23:16:45.254Z,8.4
2022-09-20T23:18:45.175Z,8.4
2022-09-20T23:20:45.163Z,8.65
2022-09-20T23:22:45.168Z,8.62
2022-09-20T23:25:45.515Z,8.67
2022-09-20T23:27:45.559Z,8.68
2022-09-20T23:29:45.558Z,8.72
2022-09-20T23:31:46.570Z,8.71
2022-09-20T23:33:46.722Z,8.72
2022-09-20T23:35:45.514Z,8.76
2022-09-20T23:37:45.560Z,8.78
2022-09-20T23:41:21.492Z,8.7
2022-09-20T23:43:21.418Z,8.7
2022-09-20T23:45:21.434Z,8.66
2022-09-20T23:47:21.483Z,8.68
2022-09-20T23:49:21.445Z,8.78
2022-09-20T23:51:21.419Z,8.8
2022-09-20T23:53:21.432Z,8.69
2022-09-20T23:56:32.277Z,8.74
2022-09-20T23:58:32.283Z,8.9
